createdAt,value
2023-05-14T00:00:34.414Z,1013.93
2023-05-14T00:01:34.420Z,1013.95
2023-05-14T00:02:34.479Z,1013.95
2023-05-14T00:03:34.417Z,1013.95
2023-05-14T00:04:34.438Z,1013.95
2023-05-14T00:05:34.366Z,1013.92
2023-05-14T00:06:34.376Z,1013.90
2023-05-14T00:07:34.311Z,1013.82
2023-05-14T00:08:34.310Z,1013.91
2023-05-14T00:09:34.278Z,1013.85
2023-05-14T00:10:34.292Z,1013.84
2023-05-14T00:11:34.311Z,1013.84
2023-05-14T00:12:34.260Z,1013.81
2023-05-14T00:13:34.254Z,1013.75
2023-05-14T00:14:34.251Z,1013.76
2023-05-14T00:15:34.627Z,1013.75
2023-05-14T00:16:34.308Z,1013.80
2023-05-14T00:17:34.224Z,1013.74
2023-05-14T00:18:34.261Z,1013.69
2023-05-14T00:19:34.181Z,1013.70
2023-05-14T00:20:34.213Z,1013.73
2023-05-14T00:21:34.172Z,1013.72
2023-05-14T00:22:34.150Z,1013.69
2023-05-14T00:23:34.146Z,1013.67
2023-05-14T00:24:34.113Z,1013.72
2023-05-14T00:25:34.150Z,1013.68
2023-05-14T00:26:34.100Z,1013.74
2023-05-14T00:27:34.080Z,1013.72
2023-05-14T00:28:34.084Z,1013.71
2023-05-14T00:29:34.114Z,1013.71
2023-05-14T00:30:34.093Z,1013.72
2023-05-14T00:31:34.080Z,1013.77
2023-05-14T00:32:34.124Z,1013.71
2023-05-14T00:33:34.013Z,1013.73
2023-05-14T00:34:34.055Z,1013.68
2023-05-14T00:35:34.004Z,1013.66
2023-05-14T00:36:33.985Z,1013.71
2023-05-14T00:37:33.983Z,1013.72
2023-05-14T00:38:33.968Z,1013.68
2023-05-14T00:39:33.980Z,1013.71
2023-05-14T00:40:33.946Z,1013.67
2023-05-14T00:41:33.916Z,1013.69
2023-05-14T00:42:33.908Z,1013.70
2023-05-14T00:43:33.933Z,1013.67
2023-05-14T00:44:33.942Z,1013.65
2023-05-14T00:45:33.873Z,1013.63
2023-05-14T00:46:33.930Z,1013.69
2023-05-14T00:47:33.916Z,1013.65
2023-05-14T00:48:33.870Z,1013.60
2023-05-14T00:49:33.839Z,1013.62
2023-05-14T00:50:33.826Z,1013.65
2023-05-14T00:51:33.851Z,1013.64
2023-05-14T00:52:33.797Z,1013.63
2023-05-14T00:53:33.813Z,1013.63
2023-05-14T00:54:33.783Z,1013.65
2023-05-14T00:55:33.771Z,1013.64
2023-05-14T00:56:33.770Z,1013.65
2023-05-14T00:57:33.788Z,1013.63
2023-05-14T00:58:33.776Z,1013.65
2023-05-14T00:59:33.727Z,1013.62
2023-05-14T01:00:33.786Z,1013.60
2023-05-14T01:01:33.735Z,1013.57
2023-05-14T01:02:33.788Z,1013.56
2023-05-14T01:03:33.759Z,1013.59
2023-05-14T01:04:33.672Z,1013.58
2023-05-14T01:05:33.654Z,1013.62
2023-05-14T01:06:33.662Z,1013.56
2023-05-14T01:07:33.681Z,1013.60
2023-05-14T01:08:33.618Z,1013.58
2023-05-14T01:09:33.611Z,1013.61
2023-05-14T01:10:33.591Z,1013.63
2023-05-14T01:11:33.619Z,1013.61
2023-05-14T01:12:33.631Z,1013.62
2023-05-14T01:13:33.566Z,1013.53
2023-05-14T01:14:33.556Z,1013.57
2023-05-14T01:15:33.607Z,1013.60
2023-05-14T01:16:33.635Z,1013.55
2023-05-14T01:17:33.560Z,1013.57
2023-05-14T01:18:33.580Z,1013.57
2023-05-14T01:19:33.483Z,1013.57
2023-05-14T01:20:33.544Z,1013.56
2023-05-14T01:21:33.528Z,1013.51
2023-05-14T01:22:33.465Z,1013.55
2023-05-14T01:23:33.462Z,1013.46
2023-05-14T01:24:33.451Z,1013.44
2023-05-14T01:25:33.475Z,1013.42
2023-05-14T01:26:33.455Z,1013.42
2023-05-14T01:27:33.447Z,1013.45
2023-05-14T01:28:33.437Z,1013.49
2023-05-14T01:29:33.376Z,1013.55
2023-05-14T01:30:33.399Z,1013.57
2023-05-14T01:31:33.384Z,1013.54
2023-05-14T01:32:33.378Z,1013.54
2023-05-14T01:33:33.333Z,1013.53
2023-05-14T01:34:33.364Z,1013.57
2023-05-14T01:35:33.362Z,1013.50
2023-05-14T01:36:33.303Z,1013.52
2023-05-14T01:37:33.328Z,1013.50
2023-05-14T01:38:33.279Z,1013.51
2023-05-14T01:39:33.294Z,1013.49
2023-05-14T01:40:33.255Z,1013.46
2023-05-14T01:41:33.253Z,1013.47
2023-05-14T01:42:33.244Z,1013.45
2023-05-14T01:43:33.287Z,1013.40
2023-05-14T01:44:33.251Z,1013.46
2023-05-14T01:45:33.189Z,1013.42
2023-05-14T01:46:33.281Z,1013.41
2023-05-14T01:47:33.214Z,1013.38
2023-05-14T01:48:33.203Z,1013.38
2023-05-14T01:49:33.190Z,1013.38
2023-05-14T01:50:33.164Z,1013.35
2023-05-14T01:51:33.130Z,1013.32
2023-05-14T01:52:33.120Z,1013.37
2023-05-14T01:53:33.135Z,1013.33
2023-05-14T01:54:33.105Z,1013.35
2023-05-14T01:55:33.089Z,1013.33
2023-05-14T01:56:33.077Z,1013.35
2023-05-14T01:57:33.080Z,1013.35
2023-05-14T01:58:33.083Z,1013.34
2023-05-14T01:59:33.050Z,1013.34
2023-05-14T02:00:33.049Z,1013.34
2023-05-14T02:01:33.093Z,1013.39
2023-05-14T02:02:33.107Z,1013.36
2023-05-14T02:03:33.058Z,1013.40
2023-05-14T02:04:32.987Z,1013.42
2023-05-14T02:05:32.973Z,1013.46
2023-05-14T02:06:32.968Z,1013.44
2023-05-14T02:07:32.992Z,1013.43
2023-05-14T02:08:32.926Z,1013.39
2023-05-14T02:09:32.924Z,1013.42
2023-05-14T02:10:32.897Z,1013.40
2023-05-14T02:11:32.900Z,1013.38
2023-05-14T02:12:32.920Z,1013.41
2023-05-14T02:13:32.880Z,1013.39
2023-05-14T02:14:32.872Z,1013.36
2023-05-14T02:15:32.891Z,1013.39
2023-05-14T02:16:32.910Z,1013.36
2023-05-14T02:17:32.940Z,1013.38
2023-05-14T02:18:32.839Z,1013.32
2023-05-14T02:19:32.816Z,1013.32
2023-05-14T02:20:32.803Z,1013.35
2023-05-14T02:21:32.826Z,1013.38
2023-05-14T02:22:32.804Z,1013.32
2023-05-14T02:23:41.001Z,1013.37
2023-05-14T02:24:33.787Z,1013.35
2023-05-14T02:25:32.746Z,1013.32
2023-05-14T02:26:32.779Z,1013.30
2023-05-14T02:27:32.724Z,1013.29
2023-05-14T02:28:32.723Z,1013.30
2023-05-14T02:29:32.710Z,1013.27
2023-05-14T02:30:32.676Z,1013.28
2023-05-14T02:31:32.779Z,1013.22
2023-05-14T02:32:32.747Z,1013.23
2023-05-14T02:33:32.711Z,1013.23
2023-05-14T02:34:32.645Z,1013.20
2023-05-14T02:35:32.675Z,1013.17
2023-05-14T02:36:32.654Z,1013.15
2023-05-14T02:37:32.605Z,1013.15
2023-05-14T02:38:32.596Z,1013.13
2023-05-14T02:39:32.600Z,1013.19
2023-05-14T02:40:32.621Z,1013.14
2023-05-14T02:41:32.567Z,1013.14
2023-05-14T02:42:32.551Z,1013.17
2023-05-14T02:43:32.550Z,1013.21
2023-05-14T02:44:32.564Z,1013.17
2023-05-14T02:45:32.566Z,1013.15
2023-05-14T02:46:32.590Z,1013.18
2023-05-14T02:47:32.857Z,1013.20
2023-05-14T02:48:32.486Z,1013.22
2023-05-14T02:49:32.504Z,1013.29
2023-05-14T02:50:32.470Z,1013.28
2023-05-14T02:51:32.473Z,1013.30
2023-05-14T02:52:32.433Z,1013.33
2023-05-14T02:53:32.435Z,1013.29
2023-05-14T02:54:32.487Z,1013.33
2023-05-14T02:55:32.435Z,1013.27
2023-05-14T02:56:32.395Z,1013.27
2023-05-14T02:57:32.384Z,1013.27
2023-05-14T02:58:32.421Z,1013.28
2023-05-14T02:59:32.403Z,1013.23
2023-05-14T03:00:32.422Z,1013.22
2023-05-14T03:01:32.350Z,1013.21
2023-05-14T03:02:32.385Z,1013.21
2023-05-14T03:03:32.366Z,1013.26
2023-05-14T03:04:32.304Z,1013.27
2023-05-14T03:05:32.321Z,1013.21
2023-05-14T03:06:32.298Z,1013.24
2023-05-14T03:07:32.280Z,1013.26
2023-05-14T03:08:32.303Z,1013.22
2023-05-14T03:09:32.256Z,1013.21
2023-05-14T03:10:32.242Z,1013.21
2023-05-14T03:11:32.243Z,1013.22
2023-05-14T03:12:32.254Z,1013.22
2023-05-14T03:13:32.249Z,1013.21
2023-05-14T03:14:32.179Z,1013.20
2023-05-14T03:15:32.177Z,1013.15
2023-05-14T03:16:32.232Z,1013.20
2023-05-14T03:17:32.232Z,1013.19
2023-05-14T03:18:32.169Z,1013.22
2023-05-14T03:19:32.139Z,1013.25
2023-05-14T03:20:32.127Z,1013.20
2023-05-14T03:21:32.122Z,1013.22
2023-05-14T03:22:32.140Z,1013.22
2023-05-14T03:23:32.127Z,1013.25
2023-05-14T03:24:32.092Z,1013.24
2023-05-14T03:25:32.097Z,1013.23
2023-05-14T03:26:32.093Z,1013.28
2023-05-14T03:27:32.099Z,1013.32
2023-05-14T03:28:32.060Z,1013.31
2023-05-14T03:29:32.036Z,1013.25
2023-05-14T03:30:32.093Z,1013.27
2023-05-14T03:31:32.046Z,1013.28
2023-05-14T03:32:32.021Z,1013.25
2023-05-14T03:33:31.976Z,1013.21
2023-05-14T03:34:31.984Z,1013.20
2023-05-14T03:35:31.961Z,1013.19
2023-05-14T03:36:31.989Z,1013.19
2023-05-14T03:37:31.939Z,1013.22
2023-05-14T03:38:31.945Z,1013.19
2023-05-14T03:39:31.925Z,1013.18
2023-05-14T03:40:31.928Z,1013.19
2023-05-14T03:41:31.935Z,1013.19
2023-05-14T03:42:31.869Z,1013.20
2023-05-14T03:43:31.878Z,1013.22
2023-05-14T03:44:31.869Z,1013.25
2023-05-14T03:45:31.869Z,1013.24
2023-05-14T03:46:31.825Z,1013.18
2023-05-14T03:47:31.850Z,1013.17
2023-05-14T03:48:31.867Z,1013.17
2023-05-14T03:49:31.818Z,1013.15
2023-05-14T03:50:31.828Z,1013.15
2023-05-14T03:51:31.780Z,1013.11
2023-05-14T03:52:31.764Z,1013.13
2023-05-14T03:53:31.759Z,1013.12
2023-05-14T03:54:31.742Z,1013.15
2023-05-14T03:55:31.767Z,1013.16
2023-05-14T03:56:31.735Z,1013.14
2023-05-14T03:57:31.712Z,1013.17
2023-05-14T03:58:31.717Z,1013.11
2023-05-14T03:59:31.721Z,1013.09
2023-05-14T04:00:31.710Z,1013.09
2023-05-14T04:01:31.660Z,1013.09
2023-05-14T04:02:31.697Z,1013.11
2023-05-14T04:03:32.061Z,1013.09
2023-05-14T04:04:31.838Z,1013.10
2023-05-14T04:05:31.635Z,1013.09
2023-05-14T04:06:31.616Z,1013.06
2023-05-14T04:07:31.596Z,1013.08
2023-05-14T04:08:31.598Z,1013.03
2023-05-14T04:09:31.623Z,1013.04
2023-05-14T04:10:31.578Z,1013.05
2023-05-14T04:11:31.563Z,1013.02
2023-05-14T04:12:31.554Z,1013.05
2023-05-14T04:13:31.563Z,1013.08
2023-05-14T04:14:31.551Z,1013.06
2023-05-14T04:15:31.504Z,1013.04
2023-05-14T04:16:31.524Z,1013.03
2023-05-14T04:17:31.481Z,1013.05
2023-05-14T04:18:31.519Z,1013.01
2023-05-14T04:19:31.490Z,1013.06
2023-05-14T04:20:31.458Z,1013.05
2023-05-14T04:21:31.461Z,1013.02
2023-05-14T04:22:31.443Z,1012.99
2023-05-14T04:23:31.453Z,1013.00
2023-05-14T04:24:31.422Z,1013.00
2023-05-14T04:25:31.427Z,1013.05
2023-05-14T04:26:31.388Z,1012.99
2023-05-14T04:27:31.418Z,1013.01
2023-05-14T04:28:31.380Z,1012.98
2023-05-14T04:29:31.360Z,1013.01
2023-05-14T04:30:31.348Z,1013.02
2023-05-14T04:31:31.332Z,1013.01
2023-05-14T04:32:31.458Z,1013.03
2023-05-14T04:33:31.315Z,1012.99
2023-05-14T04:34:31.312Z,1013.04
2023-05-14T04:35:31.297Z,1013.02
2023-05-14T04:36:31.256Z,1013.04
2023-05-14T04:37:31.300Z,1012.98
2023-05-14T04:38:31.239Z,1013.04
2023-05-14T04:39:31.259Z,1013.01
2023-05-14T04:40:31.237Z,1012.96
2023-05-14T04:41:31.270Z,1012.95
2023-05-14T04:42:31.271Z,1013.00
2023-05-14T04:43:31.239Z,1012.97
2023-05-14T04:44:31.198Z,1013.02
2023-05-14T04:45:32.847Z,1012.95
2023-05-14T04:46:31.286Z,1013.01
2023-05-14T04:47:31.152Z,1012.99
2023-05-14T04:48:31.145Z,1012.94
2023-05-14T04:49:31.135Z,1012.96
2023-05-14T04:50:31.138Z,1012.94
2023-05-14T04:51:31.146Z,1012.93
2023-05-14T04:52:31.086Z,1012.98
2023-05-14T04:53:31.089Z,1012.94
2023-05-14T04:54:31.126Z,1012.98
2023-05-14T04:55:31.096Z,1012.92
2023-05-14T04:56:31.069Z,1013.00
2023-05-14T04:57:31.037Z,1012.99
2023-05-14T04:58:32.147Z,1013.01
2023-05-14T04:59:31.024Z,1013.02
2023-05-14T05:00:31.026Z,1012.97
2023-05-14T05:01:31.111Z,1012.98
2023-05-14T05:02:31.013Z,1012.99
2023-05-14T05:03:30.973Z,1012.98
2023-05-14T05:04:30.965Z,1012.96
2023-05-14T05:05:31.116Z,1012.93
2023-05-14T05:06:30.934Z,1012.86
2023-05-14T05:07:30.929Z,1012.90
2023-05-14T05:08:30.912Z,1012.88
2023-05-14T05:09:30.904Z,1012.93
2023-05-14T05:10:30.908Z,1012.91
2023-05-14T05:11:30.903Z,1012.91
2023-05-14T05:12:30.872Z,1012.91
2023-05-14T05:13:30.857Z,1012.91
2023-05-14T05:14:30.838Z,1012.89
2023-05-14T05:15:30.858Z,1012.87
2023-05-14T05:16:30.911Z,1012.90
2023-05-14T05:17:30.873Z,1012.90
2023-05-14T05:18:30.865Z,1012.87
2023-05-14T05:19:42.264Z,1012.88
2023-05-14T05:20:31.810Z,1012.90
2023-05-14T05:21:30.775Z,1012.90
2023-05-14T05:22:30.770Z,1012.88
2023-05-14T05:23:30.758Z,1012.89
2023-05-14T05:24:30.785Z,1012.87
2023-05-14T05:25:30.741Z,1012.81
2023-05-14T05:26:30.710Z,1012.82
2023-05-14T05:27:30.695Z,1012.82
2023-05-14T05:28:30.708Z,1012.79
2023-05-14T05:29:30.718Z,1012.79
2023-05-14T05:30:30.679Z,1012.83
2023-05-14T05:31:30.674Z,1012.81
2023-05-14T05:32:30.720Z,1012.77
2023-05-14T05:33:30.674Z,1012.80
2023-05-14T05:34:30.668Z,1012.80
2023-05-14T05:35:30.630Z,1012.81
2023-05-14T05:36:30.597Z,1012.78
2023-05-14T05:37:30.605Z,1012.80
2023-05-14T05:38:30.612Z,1012.83
2023-05-14T05:39:30.583Z,1012.74
2023-05-14T05:40:30.537Z,1012.70
2023-05-14T05:41:30.559Z,1012.72
2023-05-14T05:42:30.505Z,1012.74
2023-05-14T05:43:30.551Z,1012.71
2023-05-14T05:44:30.498Z,1012.67
2023-05-14T05:45:30.501Z,1012.71
2023-05-14T05:46:30.515Z,1012.65
2023-05-14T05:47:30.570Z,1012.64
2023-05-14T05:48:30.502Z,1012.65
2023-05-14T05:49:30.455Z,1012.61
2023-05-14T05:50:30.434Z,1012.65
2023-05-14T05:51:30.451Z,1012.56
2023-05-14T05:52:30.446Z,1012.65
2023-05-14T05:53:30.411Z,1012.57
2023-05-14T05:54:30.406Z,1012.57
2023-05-14T05:55:30.396Z,1012.55
2023-05-14T05:56:30.367Z,1012.51
2023-05-14T05:57:30.395Z,1012.54
2023-05-14T05:58:30.379Z,1012.55
2023-05-14T05:59:30.329Z,1012.59
2023-05-14T06:00:30.326Z,1012.57
2023-05-14T06:01:30.314Z,1012.60
2023-05-14T06:02:30.458Z,1012.62
2023-05-14T06:03:30.285Z,1012.63
2023-05-14T06:04:30.304Z,1012.66
2023-05-14T06:05:30.290Z,1012.65
2023-05-14T06:06:30.246Z,1012.65
2023-05-14T06:07:30.274Z,1012.63
2023-05-14T06:08:30.250Z,1012.65
2023-05-14T06:09:30.216Z,1012.68
2023-05-14T06:10:30.217Z,1012.69
2023-05-14T06:11:30.223Z,1012.69
2023-05-14T06:12:30.231Z,1012.67
2023-05-14T06:13:30.163Z,1012.62
2023-05-14T06:14:30.157Z,1012.65
2023-05-14T06:15:30.147Z,1012.69
2023-05-14T06:16:30.218Z,1012.66
2023-05-14T06:17:30.145Z,1012.69
2023-05-14T06:18:30.227Z,1012.70
2023-05-14T06:19:30.111Z,1012.70
2023-05-14T06:20:30.103Z,1012.68
2023-05-14T06:21:30.132Z,1012.64
2023-05-14T06:22:30.073Z,1012.68
2023-05-14T06:23:30.062Z,1012.65
2023-05-14T06:24:30.052Z,1012.62
2023-05-14T06:25:30.067Z,1012.66
2023-05-14T06:26:30.102Z,1012.67
2023-05-14T06:27:30.004Z,1012.64
2023-05-14T06:28:30.008Z,1012.59
2023-05-14T06:29:29.988Z,1012.60
2023-05-14T06:30:30.009Z,1012.61
2023-05-14T06:31:30.011Z,1012.62
2023-05-14T06:32:29.997Z,1012.60
2023-05-14T06:33:29.945Z,1012.61
2023-05-14T06:34:29.964Z,1012.63
2023-05-14T06:35:29.950Z,1012.65
2023-05-14T06:36:29.929Z,1012.62
2023-05-14T06:37:29.902Z,1012.64
2023-05-14T06:38:29.897Z,1012.65
2023-05-14T06:39:29.924Z,1012.63
2023-05-14T06:40:29.919Z,1012.59
2023-05-14T06:41:29.863Z,1012.63
2023-05-14T06:42:29.853Z,1012.64
2023-05-14T06:43:29.823Z,1012.64
2023-05-14T06:44:29.883Z,1012.59
2023-05-14T06:45:31.218Z,1012.56
2023-05-14T06:46:29.820Z,1012.57
2023-05-14T06:47:29.845Z,1012.62
2023-05-14T06:48:29.952Z,1012.59
2023-05-14T06:49:29.822Z,1012.58
2023-05-14T06:50:29.757Z,1012.61
2023-05-14T06:51:29.748Z,1012.57
2023-05-14T06:52:29.744Z,1012.60
2023-05-14T06:53:29.723Z,1012.53
2023-05-14T06:54:29.769Z,1012.60
2023-05-14T06:55:29.732Z,1012.54
2023-05-14T06:56:29.691Z,1012.55
2023-05-14T06:57:29.698Z,1012.51
2023-05-14T06:58:29.744Z,1012.49
2023-05-14T06:59:29.703Z,1012.52
2023-05-14T07:00:29.667Z,1012.49
2023-05-14T07:01:29.702Z,1012.51
2023-05-14T07:02:29.685Z,1012.42
2023-05-14T07:03:29.636Z,1012.49
2023-05-14T07:04:29.654Z,1012.45
2023-05-14T07:05:29.597Z,1012.45
2023-05-14T07:06:29.598Z,1012.42
2023-05-14T07:07:29.577Z,1012.42
2023-05-14T07:08:29.586Z,1012.39
2023-05-14T07:09:29.570Z,1012.39
2023-05-14T07:10:29.532Z,1012.39
2023-05-14T07:11:29.545Z,1012.36
2023-05-14T07:12:29.575Z,1012.36
2023-05-14T07:13:29.583Z,1012.41
2023-05-14T07:14:29.472Z,1012.36
2023-05-14T07:15:29.477Z,1012.33
2023-05-14T07:16:29.476Z,1012.33
2023-05-14T07:17:29.665Z,1012.36
2023-05-14T07:18:29.454Z,1012.37
2023-05-14T07:19:29.444Z,1012.24
2023-05-14T07:20:29.460Z,1012.29
2023-05-14T07:21:29.418Z,1012.27
2023-05-14T07:22:29.434Z,1012.33
2023-05-14T07:23:29.390Z,1012.30
2023-05-14T07:24:29.401Z,1012.23
2023-05-14T07:25:29.365Z,1012.23
2023-05-14T07:26:29.399Z,1012.23
2023-05-14T07:27:29.380Z,1012.26
2023-05-14T07:28:29.327Z,1012.20
2023-05-14T07:29:29.366Z,1012.18
2023-05-14T07:30:29.317Z,1012.20
2023-05-14T07:31:29.409Z,1012.19
2023-05-14T07:32:29.335Z,1012.14
2023-05-14T07:33:29.285Z,1012.14
2023-05-14T07:34:29.267Z,1012.08
2023-05-14T07:35:29.245Z,1012.09
2023-05-14T07:36:29.273Z,1012.06
2023-05-14T07:37:29.230Z,1012.04
2023-05-14T07:38:29.210Z,1012.05
2023-05-14T07:39:29.198Z,1012.06
2023-05-14T07:40:29.250Z,1012.05
2023-05-14T07:41:29.224Z,1011.99
2023-05-14T07:42:36.386Z,1011.97
2023-05-14T07:43:30.155Z,1011.98
2023-05-14T07:44:29.188Z,1012.00
2023-05-14T07:45:29.188Z,1011.96
2023-05-14T07:46:29.153Z,1011.91
2023-05-14T07:47:29.224Z,1011.93
2023-05-14T07:48:29.216Z,1011.95
2023-05-14T07:49:29.112Z,1011.89
2023-05-14T07:50:29.153Z,1011.86
2023-05-14T07:51:29.067Z,1011.86
2023-05-14T07:52:29.060Z,1011.86
2023-05-14T07:53:29.051Z,1011.82
2023-05-14T07:54:29.092Z,1011.81
2023-05-14T07:55:29.060Z,1011.73
2023-05-14T07:56:29.040Z,1011.75
2023-05-14T07:57:29.020Z,1011.71
2023-05-14T07:58:29.045Z,1011.70
2023-05-14T07:59:29.025Z,1011.68
2023-05-14T08:00:28.980Z,1011.72
2023-05-14T08:01:28.966Z,1011.72
2023-05-14T08:02:29.023Z,1011.69
2023-05-14T08:03:29.118Z,1011.71
2023-05-14T08:04:29.116Z,1011.72
2023-05-14T08:05:28.936Z,1011.65
2023-05-14T08:06:28.913Z,1011.70
2023-05-14T08:07:28.899Z,1011.64
2023-05-14T08:08:28.887Z,1011.67
2023-05-14T08:09:28.896Z,1011.69
2023-05-14T08:10:29.269Z,1011.71
2023-05-14T08:11:28.833Z,1011.73
2023-05-14T08:12:28.848Z,1011.74
2023-05-14T08:13:28.874Z,1011.73
2023-05-14T08:14:28.905Z,1011.69
2023-05-14T08:15:28.837Z,1011.73
2023-05-14T08:16:28.855Z,1011.71
2023-05-14T08:17:28.800Z,1011.69
2023-05-14T08:18:28.836Z,1011.70
2023-05-14T08:19:28.802Z,1011.61
2023-05-14T08:20:28.867Z,1011.59
2023-05-14T08:21:28.795Z,1011.62
2023-05-14T08:22:28.757Z,1011.63
2023-05-14T08:23:28.752Z,1011.63
2023-05-14T08:24:28.760Z,1011.62
2023-05-14T08:25:28.758Z,1011.55
2023-05-14T08:26:28.794Z,1011.56
2023-05-14T08:27:28.749Z,1011.61
2023-05-14T08:28:28.770Z,1011.67
2023-05-14T08:29:28.692Z,1011.60
2023-05-14T08:30:28.758Z,1011.58
2023-05-14T08:31:28.672Z,1011.59
2023-05-14T08:32:28.775Z,1011.54
2023-05-14T08:33:28.624Z,1011.57
2023-05-14T08:34:28.671Z,1011.55
2023-05-14T08:35:28.634Z,1011.47
2023-05-14T08:36:28.661Z,1011.51
2023-05-14T08:37:28.656Z,1011.39
2023-05-14T08:38:28.684Z,1011.50
2023-05-14T08:39:28.574Z,1011.54
2023-05-14T08:40:28.736Z,1011.52
2023-05-14T08:41:28.593Z,1011.50
2023-05-14T08:42:28.761Z,1011.48
2023-05-14T08:43:28.748Z,1011.45
2023-05-14T08:44:28.636Z,1011.45
2023-05-14T08:45:28.532Z,1011.42
2023-05-14T08:46:28.633Z,1011.36
2023-05-14T08:47:28.540Z,1011.43
2023-05-14T08:48:28.594Z,1011.37
2023-05-14T08:49:28.455Z,1011.37
2023-05-14T08:50:28.830Z,1011.36
2023-05-14T08:51:28.549Z,1011.39
2023-05-14T08:52:28.421Z,1011.42
2023-05-14T08:53:28.491Z,1011.37
2023-05-14T08:54:28.464Z,1011.42
2023-05-14T08:55:28.507Z,1011.40
2023-05-14T08:56:28.448Z,1011.41
2023-05-14T08:57:28.436Z,1011.27
2023-05-14T08:58:28.408Z,1011.38
2023-05-14T08:59:28.359Z,1011.44
2023-05-14T09:00:28.478Z,1011.39
2023-05-14T09:01:28.396Z,1011.39
2023-05-14T09:02:28.419Z,1011.35
2023-05-14T09:03:28.344Z,1011.38
2023-05-14T09:04:28.361Z,1011.34
2023-05-14T09:05:28.365Z,1011.35
2023-05-14T09:06:28.295Z,1011.42
2023-05-14T09:07:28.270Z,1011.43
2023-05-14T09:08:28.252Z,1011.38
2023-05-14T09:09:28.232Z,1011.39
2023-05-14T09:10:28.303Z,1011.35
2023-05-14T09:11:28.455Z,1011.42
2023-05-14T09:12:28.230Z,1011.43
2023-05-14T09:13:28.469Z,1011.44
2023-05-14T09:14:28.353Z,1011.31
2023-05-14T09:15:28.248Z,1011.37
2023-05-14T09:16:28.273Z,1011.31
2023-05-14T09:17:28.223Z,1011.31
2023-05-14T09:18:28.327Z,1011.32
2023-05-14T09:19:28.202Z,1011.23
2023-05-14T09:20:28.687Z,1011.32
2023-05-14T09:21:28.123Z,1011.27
2023-05-14T09:22:28.139Z,1011.25
2023-05-14T09:23:28.152Z,1011.28
2023-05-14T09:24:28.142Z,1011.31
2023-05-14T09:25:28.071Z,1011.30
2023-05-14T09:26:28.111Z,1011.25
2023-05-14T09:27:28.063Z,1011.26
2023-05-14T09:28:28.128Z,1011.25
2023-05-14T09:29:28.120Z,1011.23
2023-05-14T09:30:28.052Z,1011.18
2023-05-14T09:31:28.049Z,1011.26
2023-05-14T09:32:28.033Z,1011.20
2023-05-14T09:33:28.067Z,1011.18
2023-05-14T09:34:28.032Z,1011.13
2023-05-14T09:35:27.991Z,1011.17
2023-05-14T09:36:27.968Z,1011.19
2023-05-14T09:37:27.987Z,1011.11
2023-05-14T09:38:27.973Z,1011.04
2023-05-14T09:39:27.962Z,1011.05
2023-05-14T09:40:28.241Z,1011.10
2023-05-14T09:41:27.907Z,1011.15
2023-05-14T09:42:28.019Z,1011.06
2023-05-14T09:43:28.052Z,1011.01
2023-05-14T09:44:27.947Z,1011.01
2023-05-14T09:45:27.906Z,1011.07
2023-05-14T09:46:27.850Z,1010.98
2023-05-14T09:47:27.976Z,1010.95
2023-05-14T09:48:27.913Z,1010.91
2023-05-14T09:49:27.826Z,1010.91
2023-05-14T09:50:27.816Z,1010.89
2023-05-14T09:51:27.865Z,1010.73
2023-05-14T09:52:27.850Z,1010.93
2023-05-14T09:53:27.795Z,1010.80
2023-05-14T09:54:27.818Z,1010.90
2023-05-14T09:55:27.816Z,1010.90
2023-05-14T09:56:27.739Z,1010.87
2023-05-14T09:57:27.783Z,1010.80
2023-05-14T09:58:27.764Z,1010.84
2023-05-14T09:59:27.739Z,1010.79
2023-05-14T10:00:27.707Z,1010.81
2023-05-14T10:01:27.755Z,1010.79
2023-05-14T10:02:27.770Z,1010.76
2023-05-14T10:03:27.753Z,1010.74
2023-05-14T10:04:27.739Z,1010.73
2023-05-14T10:05:27.693Z,1010.74
2023-05-14T10:06:27.707Z,1010.59
2023-05-14T10:07:27.632Z,1010.75
2023-05-14T10:08:27.647Z,1010.78
2023-05-14T10:09:27.620Z,1010.73
2023-05-14T10:10:27.996Z,1010.70
2023-05-14T10:11:27.616Z,1010.54
2023-05-14T10:12:27.612Z,1010.64
2023-05-14T10:13:27.596Z,1010.57
2023-05-14T10:14:27.555Z,1010.57
2023-05-14T10:15:27.607Z,1010.62
2023-05-14T10:16:27.624Z,1010.58
2023-05-14T10:17:27.594Z,1010.60
2023-05-14T10:18:27.709Z,1010.63
2023-05-14T10:19:27.569Z,1010.57
2023-05-14T10:20:27.534Z,1010.57
2023-05-14T10:21:27.494Z,1010.52
2023-05-14T10:22:27.541Z,1010.43
2023-05-14T10:23:27.492Z,1010.48
2023-05-14T10:24:27.437Z,1010.46
2023-05-14T10:25:27.469Z,1010.46
2023-05-14T10:26:27.424Z,1010.45
2023-05-14T10:27:27.415Z,1010.50
2023-05-14T10:28:27.387Z,1010.44
2023-05-14T10:29:27.430Z,1010.40
2023-05-14T10:30:27.600Z,1010.47
2023-05-14T10:31:27.438Z,1010.48
2023-05-14T10:32:27.359Z,1010.29
2023-05-14T10:33:27.366Z,1010.27
2023-05-14T10:34:27.401Z,1010.27
2023-05-14T10:35:27.304Z,1010.26
2023-05-14T10:36:27.316Z,1010.30
2023-05-14T10:37:27.314Z,1010.32
2023-05-14T10:38:27.324Z,1010.34
2023-05-14T10:39:27.327Z,1010.22
2023-05-14T10:40:27.399Z,1010.27
2023-05-14T10:41:27.261Z,1010.16
2023-05-14T10:42:27.251Z,1010.12
2023-05-14T10:43:27.248Z,1010.17
2023-05-14T10:44:27.260Z,1010.11
2023-05-14T10:45:27.225Z,1010.21
2023-05-14T10:46:27.249Z,1010.26
2023-05-14T10:47:27.186Z,1010.17
2023-05-14T10:48:27.197Z,1010.18
2023-05-14T10:49:42.317Z,1010.08
2023-05-14T10:50:28.175Z,1010.12
2023-05-14T10:51:27.181Z,1010.19
2023-05-14T10:52:27.157Z,1010.16
2023-05-14T10:53:27.176Z,1010.09
2023-05-14T10:54:27.159Z,1010.15
2023-05-14T10:55:27.095Z,1010.14
2023-05-14T10:56:27.121Z,1010.21
2023-05-14T10:57:27.099Z,1010.14
2023-05-14T10:58:27.105Z,1010.13
2023-05-14T10:59:27.070Z,1010.10
2023-05-14T11:00:27.059Z,1010.05
2023-05-14T11:01:27.086Z,1010.04
2023-05-14T11:02:27.109Z,1010.06
2023-05-14T11:03:27.093Z,1010.06
2023-05-14T11:04:27.036Z,1010.05
2023-05-14T11:05:27.022Z,1010.09
2023-05-14T11:06:26.993Z,1010.09
2023-05-14T11:07:27.034Z,1010.07
2023-05-14T11:08:28.087Z,1010.08
2023-05-14T11:09:26.992Z,1009.93
2023-05-14T11:10:27.066Z,1009.95
2023-05-14T11:11:26.949Z,1009.99
2023-05-14T11:12:27.003Z,1009.93
2023-05-14T11:13:26.966Z,1009.93
2023-05-14T11:14:26.886Z,1009.93
2023-05-14T11:15:26.915Z,1009.90
2023-05-14T11:16:26.917Z,1009.96
2023-05-14T11:17:26.941Z,1009.96
2023-05-14T11:18:26.910Z,1009.84
2023-05-14T11:19:26.867Z,1009.93
2023-05-14T11:20:27.059Z,1009.92
2023-05-14T11:21:26.948Z,1009.89
2023-05-14T11:22:26.867Z,1009.91
2023-05-14T11:23:26.862Z,1009.85
2023-05-14T11:24:26.843Z,1009.86
2023-05-14T11:25:26.803Z,1009.87
2023-05-14T11:26:26.853Z,1009.89
2023-05-14T11:27:26.776Z,1009.88
2023-05-14T11:28:26.786Z,1009.91
2023-05-14T11:29:26.758Z,1009.91
2023-05-14T11:30:26.742Z,1009.87
2023-05-14T11:31:26.822Z,1009.84
2023-05-14T11:32:26.739Z,1009.86
2023-05-14T11:33:26.726Z,1009.92
2023-05-14T11:34:26.712Z,1009.81
2023-05-14T11:35:26.745Z,1009.79
2023-05-14T11:36:26.691Z,1009.77
2023-05-14T11:37:26.653Z,1009.82
2023-05-14T11:38:26.675Z,1009.76
2023-05-14T11:39:26.666Z,1009.80
2023-05-14T11:40:26.772Z,1009.78
2023-05-14T11:41:26.636Z,1009.76
2023-05-14T11:42:26.614Z,1009.72
2023-05-14T11:43:26.622Z,1009.72
2023-05-14T11:44:26.597Z,1009.68
2023-05-14T11:45:26.630Z,1009.76
2023-05-14T11:46:26.615Z,1009.66
2023-05-14T11:47:26.630Z,1009.67
2023-05-14T11:48:26.564Z,1009.64
2023-05-14T11:49:26.614Z,1009.65
2023-05-14T11:50:26.826Z,1009.70
2023-05-14T11:51:26.552Z,1009.60
2023-05-14T11:52:26.527Z,1009.74
2023-05-14T11:53:26.508Z,1009.68
2023-05-14T11:54:26.546Z,1009.63
2023-05-14T11:55:26.483Z,1009.68
2023-05-14T11:56:26.480Z,1009.76
2023-05-14T11:57:26.446Z,1009.62
2023-05-14T11:58:26.459Z,1009.61
2023-05-14T11:59:26.439Z,1009.60
2023-05-14T12:00:26.503Z,1009.60
2023-05-14T12:01:26.453Z,1009.62
2023-05-14T12:02:26.496Z,1009.63
2023-05-14T12:03:26.806Z,1009.59
2023-05-14T12:04:26.406Z,1009.59
2023-05-14T12:05:26.356Z,1009.56